Beersheba, Israel
Current Conditions -  °F | °C
As of 8:20 AM on Saturday 25 Oct 2014 (Local Time) from LLBG Reporting Station
Clear Clear  
Wind Chill: 66°   Ceiling: Unl
Heat Index: 66°   Visibility: 6mi
Dew Point: 50°   Wind: 2mph
Humidity: 56%   Direction: NA
Pressure: 30"   Gusts: NA
Location:  31.25°N, 34.8°E
Report Text: LLBG 250520Z VRB02KT CAVOK 19/10 Q1016 NOSIG
Loading
Personal Weather Stations






























Interactive Weather Map
Tropical Storm Tracking
New forecast layout! Learn more

10-Day Weather Forecast

Advertisements
Track Severe Weather on mobile